createdAt,value
2022-09-13T00:00:55.630Z,20.40
2022-09-13T00:03:24.238Z,20.30
2022-09-13T00:05:52.206Z,20.70
2022-09-13T00:08:21.292Z,21.00
2022-09-13T00:10:49.531Z,20.00
2022-09-13T00:13:18.556Z,20.00
2022-09-13T00:15:48.839Z,19.80
2022-09-13T00:18:19.980Z,20.00
2022-09-13T00:20:48.037Z,19.90
2022-09-13T00:23:16.012Z,20.80
2022-09-13T00:25:43.984Z,19.90
2022-09-13T00:28:11.981Z,19.90
2022-09-13T00:30:40.122Z,19.90
2022-09-13T00:33:08.124Z,20.00
2022-09-13T00:35:37.464Z,20.00
2022-09-13T00:38:05.424Z,20.10
2022-09-13T00:40:38.639Z,20.80
2022-09-13T00:43:13.307Z,19.80
2022-09-13T00:45:41.367Z,20.40
2022-09-13T00:48:14.928Z,19.60
2022-09-13T00:50:48.514Z,19.30
2022-09-13T00:53:18.970Z,19.40
2022-09-13T00:55:51.629Z,19.80
2022-09-13T00:58:23.353Z,20.50
2022-09-13T01:00:51.976Z,19.90
2022-09-13T01:03:23.637Z,19.90
2022-09-13T01:05:57.277Z,20.20
2022-09-13T01:08:25.607Z,19.90
2022-09-13T01:10:54.963Z,19.90
2022-09-13T01:13:24.934Z,20.10
2022-09-13T01:15:53.875Z,19.90
2022-09-13T01:18:22.360Z,20.60
2022-09-13T01:21:22.977Z,19.80
2022-09-13T01:24:33.410Z,19.60
2022-09-13T01:27:19.995Z,19.50
2022-09-13T01:30:19.382Z,19.70
2022-09-13T01:33:07.679Z,19.50
2022-09-13T01:36:02.946Z,20.10
2022-09-13T01:38:54.656Z,19.50
2022-09-13T01:41:47.753Z,19.50
2022-09-13T01:44:25.801Z,19.40
2022-09-13T01:47:04.677Z,19.30
2022-09-13T01:49:40.970Z,19.80
2022-09-13T01:52:15.581Z,19.20
2022-09-13T01:54:52.228Z,19.30
2022-09-13T01:57:27.444Z,19.00
2022-09-13T02:00:01.420Z,18.90
2022-09-13T02:02:36.719Z,18.80
2022-09-13T02:05:17.882Z,19.40
2022-09-13T02:07:53.321Z,18.80
2022-09-13T02:10:26.537Z,18.70
2022-09-13T02:12:57.089Z,18.50
2022-09-13T02:15:30.383Z,18.40
2022-09-13T02:18:06.950Z,18.90
2022-09-13T02:20:37.689Z,19.00
2022-09-13T02:23:11.104Z,18.90
2022-09-13T02:25:41.257Z,19.50
2022-09-13T02:28:13.989Z,19.00
2022-09-13T02:30:47.688Z,19.10
2022-09-13T02:33:19.786Z,19.20
2022-09-13T02:35:53.153Z,19.20
2022-09-13T02:38:25.408Z,19.00
2022-09-13T02:40:58.491Z,19.00
2022-09-13T02:43:31.514Z,18.90
2022-09-13T02:46:12.289Z,19.20
2022-09-13T02:48:51.115Z,19.60
2022-09-13T02:51:27.291Z,18.80
2022-09-13T02:54:06.781Z,18.80
2022-09-13T02:56:42.692Z,18.80
2022-09-13T02:59:15.838Z,18.70
2022-09-13T03:01:47.812Z,18.70
2022-09-13T03:04:17.681Z,18.70
2022-09-13T03:06:45.868Z,19.30
2022-09-13T03:09:14.216Z,18.80
2022-09-13T03:12:06.239Z,18.70
2022-09-13T03:14:44.448Z,18.70
2022-09-13T03:17:24.459Z,18.80
2022-09-13T03:20:06.824Z,18.90
2022-09-13T03:22:56.796Z,19.00
2022-09-13T03:25:38.905Z,19.00
2022-09-13T03:28:16.207Z,19.00
2022-09-13T03:30:51.785Z,19.10
2022-09-13T03:33:29.328Z,19.10
2022-09-13T03:36:07.249Z,19.10
2022-09-13T03:38:41.198Z,19.40
2022-09-13T03:41:13.630Z,19.40
2022-09-13T03:43:45.678Z,19.00
2022-09-13T03:46:18.690Z,19.10
2022-09-13T03:48:47.601Z,19.60
2022-09-13T03:51:17.407Z,19.40
2022-09-13T03:53:52.192Z,19.30
2022-09-13T03:56:21.626Z,19.40
2022-09-13T03:58:50.388Z,19.40
2022-09-13T04:01:21.178Z,19.40
2022-09-13T04:03:52.333Z,19.50
2022-09-13T04:06:23.980Z,19.50
2022-09-13T04:08:52.004Z,19.50
2022-09-13T04:11:21.499Z,19.50
2022-09-13T04:13:49.587Z,19.40
2022-09-13T04:16:17.787Z,19.30
2022-09-13T04:18:45.817Z,19.40
2022-09-13T04:21:13.780Z,19.50
2022-09-13T04:23:43.134Z,19.40
2022-09-13T04:26:11.320Z,19.40
2022-09-13T04:28:39.319Z,19.90
2022-09-13T04:31:07.303Z,19.30
2022-09-13T04:33:36.324Z,19.70
2022-09-13T04:36:04.355Z,19.30
2022-09-13T04:38:32.435Z,19.30
2022-09-13T04:41:01.800Z,19.20
2022-09-13T04:43:30.172Z,19.30
2022-09-13T04:46:01.781Z,19.40
2022-09-13T04:48:31.252Z,20.00
2022-09-13T04:51:04.621Z,19.40
2022-09-13T04:53:32.658Z,19.40
2022-09-13T04:56:03.679Z,19.40
2022-09-13T04:58:32.296Z,19.40
2022-09-13T05:01:03.022Z,19.40
2022-09-13T05:03:32.373Z,19.30
2022-09-13T05:06:04.290Z,19.10
2022-09-13T05:08:32.598Z,19.70
2022-09-13T05:11:00.575Z,19.20
2022-09-13T05:13:30.347Z,19.40
2022-09-13T05:15:59.203Z,19.60
2022-09-13T05:18:27.750Z,19.90
2022-09-13T05:20:56.364Z,19.40
2022-09-13T05:23:25.360Z,19.30
2022-09-13T05:25:56.320Z,19.30
2022-09-13T05:28:30.653Z,19.30
2022-09-13T05:30:59.841Z,19.30
2022-09-13T05:33:29.780Z,19.40
2022-09-13T05:35:58.047Z,19.50
2022-09-13T05:38:26.515Z,19.60
2022-09-13T05:40:57.166Z,19.70
2022-09-13T05:43:26.505Z,19.70
2022-09-13T05:46:03.950Z,19.60
2022-09-13T05:48:32.739Z,19.70
2022-09-13T05:51:07.156Z,19.60
2022-09-13T05:53:35.256Z,19.80
2022-09-13T05:56:03.690Z,19.70
2022-09-13T05:58:31.751Z,19.80
2022-09-13T06:00:59.839Z,19.60
2022-09-13T06:03:29.367Z,19.70
2022-09-13T06:05:58.629Z,19.70
2022-09-13T06:08:27.526Z,19.60
2022-09-13T06:10:57.561Z,19.80
2022-09-13T06:13:26.728Z,19.80
2022-09-13T06:15:55.914Z,19.70
2022-09-13T06:18:24.687Z,20.50
2022-09-13T06:20:59.470Z,19.80
2022-09-13T06:23:27.614Z,19.60
2022-09-13T06:26:03.249Z,19.80
2022-09-13T06:28:36.657Z,19.60
2022-09-13T06:31:08.631Z,20.10
2022-09-13T06:33:38.275Z,19.90
2022-09-13T06:36:10.575Z,19.90
2022-09-13T06:38:40.014Z,19.90
2022-09-13T06:41:10.544Z,20.10
2022-09-13T06:43:39.430Z,20.10
2022-09-13T06:46:10.154Z,19.90
2022-09-13T06:48:39.829Z,19.90
2022-09-13T06:51:11.768Z,20.00
2022-09-13T06:53:39.913Z,20.20
2022-09-13T06:56:10.821Z,20.30
2022-09-13T06:58:40.114Z,20.30
2022-09-13T07:01:10.707Z,20.20
2022-09-13T07:03:39.516Z,20.00
2022-09-13T07:06:22.165Z,20.10
2022-09-13T07:08:52.298Z,19.90
2022-09-13T07:11:22.574Z,19.90
2022-09-13T07:13:51.619Z,20.30
2022-09-13T07:16:21.011Z,19.90
2022-09-13T07:18:53.441Z,20.10
2022-09-13T07:21:23.461Z,19.90
2022-09-13T07:23:53.732Z,19.90
2022-09-13T07:26:21.975Z,20.00
2022-09-13T07:28:52.137Z,20.00
2022-09-13T07:31:22.745Z,19.90
2022-09-13T07:33:55.889Z,19.70
2022-09-13T07:36:26.248Z,19.90
2022-09-13T07:38:54.383Z,19.90
2022-09-13T07:41:24.577Z,19.90
2022-09-13T07:43:52.917Z,20.20
2022-09-13T07:46:22.916Z,19.90
2022-09-13T07:48:53.432Z,20.00
2022-09-13T07:51:23.082Z,20.00
2022-09-13T07:53:57.348Z,20.20
2022-09-13T07:56:27.360Z,20.10
2022-09-13T07:58:56.291Z,20.40
2022-09-13T08:01:25.796Z,20.30
2022-09-13T08:03:55.517Z,20.30
2022-09-13T08:06:24.580Z,20.20
2022-09-13T08:08:54.324Z,20.10
2022-09-13T08:11:24.370Z,20.30
2022-09-13T08:13:53.557Z,20.50
2022-09-13T08:16:23.511Z,20.70
2022-09-13T08:18:53.530Z,20.90
2022-09-13T08:21:21.838Z,21.10
2022-09-13T08:23:50.780Z,21.20
2022-09-13T08:26:20.200Z,21.50
2022-09-13T08:28:48.341Z,21.50
2022-09-13T08:31:19.994Z,21.50
2022-09-13T08:33:49.744Z,21.60
2022-09-13T08:36:19.859Z,21.90
2022-09-13T08:38:49.245Z,21.70
2022-09-13T08:41:49.184Z,21.90
2022-09-13T08:44:26.484Z,22.10
2022-09-13T08:46:58.885Z,22.30
2022-09-13T08:49:32.083Z,22.10
2022-09-13T08:52:05.118Z,22.10
2022-09-13T08:54:34.215Z,22.20
2022-09-13T08:57:11.833Z,22.00
2022-09-13T08:59:55.566Z,21.60
2022-09-13T09:02:45.902Z,21.70
2022-09-13T09:05:18.457Z,21.70
2022-09-13T09:07:52.096Z,21.40
2022-09-13T09:10:22.925Z,21.30
2022-09-13T09:12:56.345Z,21.40
2022-09-13T09:15:26.584Z,21.10
2022-09-13T09:17:59.949Z,20.80
2022-09-13T09:20:33.188Z,20.90
2022-09-13T09:23:05.786Z,21.10
2022-09-13T09:25:35.766Z,21.30
2022-09-13T09:28:13.822Z,21.60
2022-09-13T09:30:50.445Z,21.40
2022-09-13T09:33:35.021Z,21.40
2022-09-13T09:36:11.956Z,21.50
2022-09-13T09:38:43.009Z,21.90
2022-09-13T09:41:19.671Z,22.10
2022-09-13T09:43:54.253Z,21.80
2022-09-13T09:46:27.303Z,21.70
2022-09-13T09:48:58.755Z,21.70
2022-09-13T09:51:29.509Z,21.80
2022-09-13T09:54:05.257Z,21.90
2022-09-13T09:56:35.009Z,22.20
2022-09-13T09:59:04.800Z,22.30
2022-09-13T10:01:35.223Z,22.50
2022-09-13T10:04:08.578Z,22.60
2022-09-13T10:06:38.208Z,22.70
2022-09-13T10:09:08.675Z,22.60
2022-09-13T10:11:46.107Z,22.40
2022-09-13T10:14:40.830Z,22.20
2022-09-13T10:17:24.076Z,22.00
2022-09-13T10:19:59.233Z,22.00
2022-09-13T10:22:27.764Z,21.90
2022-09-13T10:24:55.994Z,22.10
2022-09-13T10:27:33.581Z,22.20
2022-09-13T10:30:05.412Z,22.30
2022-09-13T10:32:34.284Z,22.20
2022-09-13T10:35:10.277Z,22.20
2022-09-13T10:37:43.137Z,22.20
2022-09-13T10:40:20.195Z,22.50
2022-09-13T10:42:54.160Z,22.40
2022-09-13T10:45:25.819Z,22.50
2022-09-13T10:47:57.303Z,22.30
2022-09-13T10:50:27.187Z,22.30
2022-09-13T10:52:56.812Z,22.20
2022-09-13T10:55:36.754Z,22.40
2022-09-13T10:58:17.709Z,22.50
2022-09-13T11:01:16.187Z,22.30
2022-09-13T11:04:20.868Z,22.60
2022-09-13T11:07:01.642Z,23.00
2022-09-13T11:09:37.058Z,23.10
2022-09-13T11:12:15.759Z,23.20
2022-09-13T11:14:59.108Z,23.20
2022-09-13T11:17:44.336Z,23.20
2022-09-13T11:20:22.847Z,22.80
2022-09-13T11:23:15.037Z,22.70
2022-09-13T11:25:56.727Z,22.70
2022-09-13T11:28:33.535Z,23.10
2022-09-13T11:31:12.688Z,22.80
2022-09-13T11:33:56.151Z,22.90
2022-09-13T11:36:43.487Z,22.90
2022-09-13T11:39:22.623Z,23.00
2022-09-13T11:42:00.301Z,23.00
2022-09-13T11:44:58.355Z,23.30
2022-09-13T11:47:37.083Z,23.50
2022-09-13T11:50:21.716Z,23.50
2022-09-13T11:53:00.230Z,23.60
2022-09-13T11:55:32.993Z,23.70
2022-09-13T11:58:04.383Z,23.90
2022-09-13T12:00:37.208Z,23.70
2022-09-13T12:03:16.394Z,23.40
2022-09-13T12:05:49.578Z,23.50
2022-09-13T12:08:21.277Z,23.60
2022-09-13T12:10:53.750Z,23.70
2022-09-13T12:13:25.184Z,23.80
2022-09-13T12:15:58.602Z,24.00
2022-09-13T12:18:30.804Z,24.20
2022-09-13T12:21:07.416Z,24.40
2022-09-13T12:23:39.880Z,24.40
2022-09-13T12:26:12.422Z,24.60
2022-09-13T12:28:44.953Z,24.80
2022-09-13T12:31:19.527Z,24.90
2022-09-13T12:33:48.738Z,24.40
2022-09-13T12:36:46.291Z,24.40
2022-09-13T12:39:39.824Z,24.40
2022-09-13T12:42:35.564Z,24.50
2022-09-13T12:45:17.319Z,24.50
2022-09-13T12:47:58.637Z,24.40
2022-09-13T12:50:47.427Z,24.20
2022-09-13T12:53:39.668Z,24.40
2022-09-13T12:56:39.077Z,24.40
2022-09-13T12:59:40.352Z,24.40
2022-09-13T13:02:26.886Z,24.40
2022-09-13T13:04:58.540Z,24.40
2022-09-13T13:07:27.356Z,24.40
2022-09-13T13:09:58.368Z,24.40
2022-09-13T13:12:31.432Z,24.60
2022-09-13T13:15:01.310Z,24.70
2022-09-13T13:17:45.707Z,24.60
2022-09-13T13:21:06.227Z,24.70
2022-09-13T13:23:36.652Z,25.00
2022-09-13T13:26:11.882Z,25.10
2022-09-13T13:29:14.180Z,25.30
2022-09-13T13:32:03.892Z,25.30
2022-09-13T13:34:47.150Z,25.20
2022-09-13T13:37:37.461Z,25.00
2022-09-13T13:40:21.125Z,24.70
2022-09-13T13:42:50.985Z,24.50
2022-09-13T13:45:25.917Z,24.60
2022-09-13T13:48:11.033Z,24.80
2022-09-13T13:51:14.006Z,24.80
2022-09-13T13:53:44.150Z,24.90
2022-09-13T13:56:29.088Z,24.90
2022-09-13T13:59:04.619Z,24.90
2022-09-13T14:01:35.426Z,24.90
2022-09-13T14:04:36.772Z,25.00
2022-09-13T14:07:22.065Z,25.30
2022-09-13T14:10:00.494Z,25.50
2022-09-13T14:12:49.756Z,25.70
2022-09-13T14:15:35.837Z,25.80
2022-09-13T14:18:25.450Z,25.70
2022-09-13T14:21:04.300Z,25.80
2022-09-13T14:23:34.383Z,25.90
2022-09-13T14:26:02.827Z,25.90
2022-09-13T14:28:33.211Z,25.80
2022-09-13T14:31:02.594Z,25.50
2022-09-13T14:33:34.779Z,25.70
2022-09-13T14:36:05.893Z,25.80
2022-09-13T14:38:54.827Z,26.00
2022-09-13T14:41:33.137Z,25.90
2022-09-13T14:44:23.654Z,25.80
2022-09-13T14:47:02.476Z,25.80
2022-09-13T14:49:35.543Z,25.70
2022-09-13T14:52:07.583Z,25.60
2022-09-13T14:54:40.199Z,25.60
2022-09-13T14:57:15.736Z,25.60
2022-09-13T14:59:48.028Z,25.60
2022-09-13T15:02:22.279Z,25.50
2022-09-13T15:04:53.033Z,25.50
2022-09-13T15:07:28.391Z,25.50
2022-09-13T15:10:07.180Z,25.50
2022-09-13T15:12:37.015Z,25.40
2022-09-13T15:15:34.075Z,25.30
2022-09-13T15:18:05.448Z,25.30
2022-09-13T15:20:47.981Z,25.40
2022-09-13T15:23:18.574Z,25.30
2022-09-13T15:25:53.013Z,25.20
2022-09-13T15:28:27.585Z,25.20
2022-09-13T15:30:57.448Z,25.30
2022-09-13T15:33:29.326Z,25.20
2022-09-13T15:36:28.709Z,25.10
2022-09-13T15:39:05.579Z,25.00
2022-09-13T15:41:35.704Z,24.90
2022-09-13T15:44:05.800Z,24.80
2022-09-13T15:46:35.836Z,24.90
2022-09-13T15:49:06.950Z,25.00
2022-09-13T15:51:38.954Z,24.90
2022-09-13T15:54:13.167Z,24.70
2022-09-13T15:56:45.852Z,24.60
2022-09-13T15:59:15.705Z,24.60
2022-09-13T16:01:46.068Z,24.60
2022-09-13T16:04:16.009Z,24.60
2022-09-13T16:06:44.400Z,24.60
2022-09-13T16:09:19.285Z,24.50
2022-09-13T16:11:48.145Z,24.50
2022-09-13T16:14:17.026Z,24.40
2022-09-13T16:16:45.880Z,24.40
2022-09-13T16:19:17.868Z,24.40
2022-09-13T16:21:46.036Z,24.40
2022-09-13T16:24:14.668Z,24.40
2022-09-13T16:26:43.103Z,24.30
2022-09-13T16:29:12.705Z,24.30
2022-09-13T16:31:41.236Z,24.20
2022-09-13T16:34:09.461Z,24.30
2022-09-13T16:36:38.821Z,24.20
2022-09-13T16:39:06.942Z,24.20
2022-09-13T16:41:35.007Z,24.10
2022-09-13T16:44:05.122Z,24.10
2022-09-13T16:46:33.625Z,24.10
2022-09-13T16:49:01.710Z,24.00
2022-09-13T16:51:29.739Z,23.90
2022-09-13T16:53:59.210Z,24.00
2022-09-13T16:56:27.830Z,23.90
2022-09-13T16:58:55.946Z,22.90
2022-09-13T17:01:27.090Z,24.00
2022-09-13T17:03:55.867Z,23.90
2022-09-13T17:06:25.357Z,23.80
2022-09-13T17:08:55.900Z,23.80
2022-09-13T17:11:28.011Z,23.90
2022-09-13T17:13:57.136Z,23.90
2022-09-13T17:16:28.538Z,24.00
2022-09-13T17:18:58.316Z,23.90
2022-09-13T17:21:26.587Z,23.80
2022-09-13T17:23:55.660Z,23.70
2022-09-13T17:26:25.392Z,23.70
2022-09-13T17:28:53.631Z,23.60
2022-09-13T17:31:22.032Z,23.50
2022-09-13T17:33:50.383Z,23.50
2022-09-13T17:36:18.473Z,23.40
2022-09-13T17:38:46.733Z,23.50
2022-09-13T17:41:17.199Z,23.40
2022-09-13T17:43:47.722Z,23.40
2022-09-13T17:46:17.473Z,23.40
2022-09-13T17:48:45.848Z,23.40
2022-09-13T17:51:15.298Z,23.40
2022-09-13T17:53:45.994Z,23.50
2022-09-13T17:56:18.772Z,23.50
2022-09-13T17:58:48.507Z,23.40
2022-09-13T18:01:17.218Z,23.40
2022-09-13T18:03:45.918Z,23.30
2022-09-13T18:06:14.981Z,23.30
2022-09-13T18:08:43.243Z,23.40
2022-09-13T18:11:14.399Z,23.30
2022-09-13T18:13:44.319Z,23.40
2022-09-13T18:16:20.759Z,23.40
2022-09-13T18:18:50.006Z,23.40
2022-09-13T18:21:19.597Z,23.40
2022-09-13T18:23:48.743Z,23.30
2022-09-13T18:26:19.704Z,23.30
2022-09-13T18:28:55.925Z,23.30
2022-09-13T18:31:25.949Z,23.40
2022-09-13T18:33:59.814Z,23.30
2022-09-13T18:36:30.324Z,23.20
2022-09-13T18:38:58.836Z,23.10
2022-09-13T18:41:28.376Z,23.10
2022-09-13T18:43:58.565Z,23.00
2022-09-13T18:46:30.336Z,22.90
2022-09-13T18:48:59.484Z,22.90
2022-09-13T18:51:30.308Z,23.10
2022-09-13T18:53:59.594Z,23.10
2022-09-13T18:56:28.664Z,23.20
2022-09-13T18:58:57.413Z,23.20
2022-09-13T19:01:28.609Z,23.20
2022-09-13T19:03:58.804Z,23.10
2022-09-13T19:06:28.438Z,23.00
2022-09-13T19:08:57.611Z,23.00
2022-09-13T19:11:45.961Z,23.00
2022-09-13T19:14:15.642Z,22.90
2022-09-13T19:16:45.182Z,22.90
2022-09-13T19:19:13.192Z,22.90
2022-09-13T19:21:41.594Z,22.90
2022-09-13T19:24:14.872Z,22.90
2022-09-13T19:26:46.240Z,22.80
2022-09-13T19:29:15.410Z,22.80
2022-09-13T19:31:47.656Z,22.70
2022-09-13T19:34:17.361Z,22.70
2022-09-13T19:36:45.748Z,22.80
2022-09-13T19:39:13.892Z,22.80
2022-09-13T19:41:42.512Z,22.80
2022-09-13T19:44:12.644Z,22.10
2022-09-13T19:46:41.993Z,22.70
2022-09-13T19:49:14.940Z,22.70
2022-09-13T19:51:45.548Z,22.70
2022-09-13T19:54:18.759Z,22.70
2022-09-13T19:56:46.928Z,22.70
2022-09-13T19:59:17.362Z,22.60
2022-09-13T20:01:46.654Z,22.60
2022-09-13T20:04:18.053Z,22.60
2022-09-13T20:06:47.378Z,22.50
2022-09-13T20:09:17.460Z,22.50
2022-09-13T20:11:47.361Z,22.60
2022-09-13T20:14:17.542Z,22.70
2022-09-13T20:16:45.542Z,22.70
2022-09-13T20:19:39.359Z,22.70
2022-09-13T20:22:07.822Z,22.70
2022-09-13T20:24:35.809Z,22.70
2022-09-13T20:27:03.808Z,22.70
2022-09-13T20:29:32.445Z,22.80
2022-09-13T20:32:02.150Z,22.90
2022-09-13T20:34:31.867Z,22.90
2022-09-13T20:36:59.946Z,22.90
2022-09-13T20:39:27.953Z,22.90
2022-09-13T20:41:55.978Z,22.90
2022-09-13T20:44:23.942Z,22.90
2022-09-13T20:46:52.125Z,22.90
2022-09-13T20:49:20.683Z,22.80
2022-09-13T20:51:50.976Z,22.80
2022-09-13T20:54:19.383Z,22.80
2022-09-13T20:56:47.364Z,22.80
2022-09-13T20:59:15.851Z,22.80
2022-09-13T21:01:44.053Z,22.80
2022-09-13T21:04:12.158Z,22.80
2022-09-13T21:07:02.564Z,22.90
2022-09-13T21:09:32.549Z,22.90
2022-09-13T21:12:01.255Z,23.00
2022-09-13T21:14:32.328Z,22.90
2022-09-13T21:17:00.701Z,22.80
2022-09-13T21:19:30.319Z,22.80
2022-09-13T21:21:58.536Z,22.80
2022-09-13T21:24:26.741Z,22.80
2022-09-13T21:26:57.279Z,22.80
2022-09-13T21:29:25.572Z,22.70
2022-09-13T21:31:54.478Z,22.70
2022-09-13T21:34:22.731Z,22.60
2022-09-13T21:36:51.167Z,22.50
2022-09-13T21:39:19.635Z,22.50
2022-09-13T21:41:47.728Z,22.60
2022-09-13T21:44:17.822Z,22.60
2022-09-13T21:46:46.667Z,22.60
2022-09-13T21:49:15.734Z,22.60
2022-09-13T21:51:45.131Z,22.70
2022-09-13T21:54:16.084Z,22.60
2022-09-13T21:56:46.028Z,22.50
2022-09-13T21:59:18.024Z,22.60
2022-09-13T22:01:51.516Z,22.60
2022-09-13T22:04:22.059Z,22.60
2022-09-13T22:06:52.226Z,22.70
2022-09-13T22:09:21.779Z,22.80
2022-09-13T22:11:50.659Z,22.80
2022-09-13T22:14:23.093Z,22.70
2022-09-13T22:16:52.546Z,22.70
2022-09-13T22:19:23.491Z,22.70
2022-09-13T22:21:54.453Z,23.50
2022-09-13T22:24:23.958Z,22.60
2022-09-13T22:26:53.230Z,22.60
2022-09-13T22:29:23.410Z,23.20
2022-09-13T22:31:52.375Z,22.80
2022-09-13T22:34:22.053Z,23.20
2022-09-13T22:36:50.312Z,22.60
2022-09-13T22:39:18.944Z,22.50
2022-09-13T22:41:47.155Z,22.60
2022-09-13T22:44:15.568Z,23.30
2022-09-13T22:46:46.575Z,22.50
2022-09-13T22:49:16.032Z,22.50
2022-09-13T22:51:45.080Z,22.50
2022-09-13T22:54:14.125Z,22.60
2022-09-13T22:56:42.628Z,22.60
2022-09-13T22:59:13.846Z,22.60
2022-09-13T23:01:42.313Z,23.40
2022-09-13T23:04:12.329Z,22.70
2022-09-13T23:06:40.950Z,22.80
2022-09-13T23:09:09.623Z,22.70
2022-09-13T23:11:39.666Z,22.70
2022-09-13T23:14:09.827Z,22.70
2022-09-13T23:16:40.930Z,22.60
2022-09-13T23:19:09.292Z,22.60
2022-09-13T23:21:38.792Z,23.30
2022-09-13T23:24:08.488Z,22.90
2022-09-13T23:26:36.522Z,22.70
2022-09-13T23:29:06.342Z,23.30
2022-09-13T23:31:36.053Z,22.70
2022-09-13T23:34:06.587Z,22.70
2022-09-13T23:36:37.237Z,22.70
2022-09-13T23:39:08.477Z,22.60
2022-09-13T23:41:36.832Z,22.70
2022-09-13T23:44:05.683Z,22.70
2022-09-13T23:46:34.115Z,22.60
2022-09-13T23:49:02.124Z,22.60
2022-09-13T23:51:30.377Z,22.60
2022-09-13T23:54:00.900Z,22.70
2022-09-13T23:56:32.526Z,22.70
2022-09-13T23:59:02.288Z,22.70
